createdAt,value
2018-12-27T00:01:09.808Z,17.00
2018-12-27T00:03:37.978Z,19.20
2018-12-27T00:06:05.977Z,19.33
2018-12-27T00:08:34.236Z,18.97
2018-12-27T00:11:02.331Z,18.20
2018-12-27T00:13:30.339Z,18.80
2018-12-27T00:15:58.380Z,17.57
2018-12-27T00:18:26.503Z,18.23
2018-12-27T00:20:54.656Z,17.57
2018-12-27T00:23:22.673Z,17.20
2018-12-27T00:25:51.309Z,18.00
2018-12-27T00:28:19.505Z,18.00
2018-12-27T00:30:47.607Z,17.10
2018-12-27T00:33:15.487Z,16.33
2018-12-27T00:35:43.540Z,17.77
2018-12-27T00:38:11.557Z,16.67
2018-12-27T00:40:39.741Z,17.97
2018-12-27T00:43:07.567Z,17.30
2018-12-27T00:45:35.628Z,17.07
2018-12-27T00:48:04.032Z,17.90
2018-12-27T00:50:32.120Z,17.43
2018-12-27T00:53:00.219Z,16.57
2018-12-27T00:55:28.209Z,16.10
2018-12-27T00:57:56.355Z,17.67
2018-12-27T01:00:24.507Z,18.33
2018-12-27T01:02:53.472Z,18.57
2018-12-27T01:05:21.589Z,16.93
2018-12-27T01:07:49.560Z,18.10
2018-12-27T01:10:17.900Z,16.80
2018-12-27T01:12:45.920Z,16.83
2018-12-27T01:15:14.040Z,16.40
2018-12-27T01:17:42.047Z,16.30
2018-12-27T01:20:10.039Z,17.33
2018-12-27T01:22:38.630Z,17.23
2018-12-27T01:25:06.782Z,17.63
2018-12-27T01:27:34.914Z,17.80
2018-12-27T01:30:03.286Z,16.50
2018-12-27T01:32:31.594Z,16.47
2018-12-27T01:34:59.723Z,17.60
2018-12-27T01:37:27.845Z,17.43
2018-12-27T01:39:55.855Z,16.17
2018-12-27T01:42:23.778Z,16.53
2018-12-27T01:44:51.771Z,17.63
2018-12-27T01:47:19.702Z,16.97
2018-12-27T01:49:48.373Z,16.70
2018-12-27T01:52:16.361Z,15.37
2018-12-27T01:54:44.521Z,17.67
2018-12-27T01:57:11.963Z,16.63
2018-12-27T01:59:39.748Z,16.53
2018-12-27T02:02:07.598Z,17.83
2018-12-27T02:04:35.787Z,17.07
2018-12-27T02:07:03.891Z,18.00
2018-12-27T02:09:32.695Z,18.03
2018-12-27T02:12:00.667Z,16.30
2018-12-27T02:14:28.881Z,17.10
2018-12-27T02:16:57.008Z,16.60
2018-12-27T02:19:24.930Z,17.53
2018-12-27T02:21:52.944Z,17.70
2018-12-27T02:24:21.184Z,16.87
2018-12-27T02:26:49.249Z,17.60
2018-12-27T02:29:17.093Z,17.20
2018-12-27T02:31:45.229Z,17.70
2018-12-27T02:34:13.330Z,17.50
2018-12-27T02:36:40.772Z,18.60
2018-12-27T02:39:08.521Z,17.48
2018-12-27T02:41:36.327Z,16.97
2018-12-27T02:44:04.298Z,17.33
2018-12-27T02:46:32.267Z,16.80
2018-12-27T02:49:01.513Z,16.98
2018-12-27T02:51:31.146Z,16.97
2018-12-27T02:53:59.047Z,16.97
2018-12-27T02:56:27.324Z,15.93
2018-12-27T02:58:55.977Z,15.63
2018-12-27T03:01:24.127Z,16.70
2018-12-27T03:03:51.931Z,17.97
2018-12-27T03:06:20.094Z,15.80
2018-12-27T03:08:48.122Z,17.00
2018-12-27T03:11:15.866Z,16.67
2018-12-27T03:13:44.344Z,17.00
2018-12-27T03:16:12.421Z,17.20
2018-12-27T03:18:40.152Z,18.20
2018-12-27T03:21:08.163Z,16.70
2018-12-27T03:23:36.621Z,16.80
2018-12-27T03:26:04.322Z,18.47
2018-12-27T03:28:32.532Z,18.57
2018-12-27T03:31:00.108Z,17.57
2018-12-27T03:33:28.165Z,17.30
2018-12-27T03:35:57.026Z,15.47
2018-12-27T03:38:25.355Z,17.07
2018-12-27T03:40:54.103Z,17.60
2018-12-27T03:43:22.320Z,16.40
2018-12-27T03:45:50.713Z,22.20
2018-12-27T03:48:18.443Z,17.53
2018-12-27T03:50:47.144Z,17.70
2018-12-27T03:53:16.340Z,16.50
2018-12-27T03:55:44.127Z,16.40
2018-12-27T03:58:12.126Z,17.77
2018-12-27T04:00:39.836Z,16.20
2018-12-27T04:03:07.572Z,17.57
2018-12-27T04:05:36.275Z,16.13
2018-12-27T04:08:04.907Z,17.30
2018-12-27T04:10:32.907Z,16.87
2018-12-27T04:13:01.042Z,17.10
2018-12-27T04:15:29.885Z,16.00
2018-12-27T04:17:57.892Z,16.17
2018-12-27T04:20:25.321Z,16.10
2018-12-27T04:22:53.088Z,17.17
2018-12-27T04:25:21.084Z,16.33
2018-12-27T04:27:48.568Z,16.83
2018-12-27T04:30:16.612Z,18.40
2018-12-27T04:32:44.650Z,16.83
2018-12-27T04:35:12.704Z,16.73
2018-12-27T04:37:41.189Z,17.70
2018-12-27T04:40:09.227Z,17.87
2018-12-27T04:42:37.603Z,15.97
2018-12-27T04:45:05.563Z,16.83
2018-12-27T04:47:34.216Z,17.33
2018-12-27T04:50:01.931Z,16.53
2018-12-27T04:52:30.094Z,17.53
2018-12-27T04:54:58.250Z,16.70
2018-12-27T04:57:26.279Z,16.93
2018-12-27T04:59:56.103Z,17.77
2018-12-27T05:02:24.313Z,17.70
2018-12-27T05:04:52.221Z,17.07
2018-12-27T05:07:20.653Z,17.27
2018-12-27T05:09:48.721Z,18.47
2018-12-27T05:12:16.879Z,17.20
2018-12-27T05:14:44.967Z,17.20
2018-12-27T05:17:13.014Z,16.53
2018-12-27T05:19:41.044Z,16.63
2018-12-27T05:22:09.106Z,15.53
2018-12-27T05:24:37.064Z,16.17
2018-12-27T05:27:04.770Z,16.57
2018-12-27T05:29:32.864Z,16.50
2018-12-27T05:32:00.951Z,16.20
2018-12-27T05:34:29.011Z,16.80
2018-12-27T05:36:57.124Z,18.00
2018-12-27T05:39:25.564Z,16.07
2018-12-27T05:41:53.333Z,16.73
2018-12-27T05:44:21.908Z,18.30
2018-12-27T05:46:49.901Z,17.53
2018-12-27T05:49:17.976Z,18.03
2018-12-27T05:51:46.433Z,16.93
2018-12-27T05:54:16.080Z,16.97
2018-12-27T05:56:46.992Z,17.73
2018-12-27T05:59:15.504Z,15.87
2018-12-27T06:01:43.544Z,16.73
2018-12-27T06:04:11.591Z,16.87
2018-12-27T06:06:39.997Z,15.83
2018-12-27T06:09:08.043Z,16.63
2018-12-27T06:11:36.091Z,17.33
2018-12-27T06:14:04.026Z,22.27
2018-12-27T06:16:31.720Z,18.63
2018-12-27T06:19:00.193Z,17.07
2018-12-27T06:21:28.382Z,15.60
2018-12-27T06:23:56.233Z,16.93
2018-12-27T06:26:24.266Z,17.63
2018-12-27T06:28:52.107Z,16.63
2018-12-27T06:31:20.257Z,15.47
2018-12-27T06:33:48.363Z,16.97
2018-12-27T06:36:16.907Z,16.47
2018-12-27T06:38:44.338Z,17.10
2018-12-27T06:41:12.153Z,16.47
2018-12-27T06:43:40.195Z,15.73
2018-12-27T06:46:08.845Z,16.50
2018-12-27T06:48:36.814Z,16.23
2018-12-27T06:51:04.876Z,15.47
2018-12-27T06:53:32.613Z,15.63
2018-12-27T06:56:00.338Z,15.60
2018-12-27T06:58:28.320Z,16.90
2018-12-27T07:00:56.376Z,16.17
2018-12-27T07:03:24.402Z,15.70
2018-12-27T07:05:52.576Z,16.00
2018-12-27T07:08:20.557Z,17.50
2018-12-27T07:10:48.557Z,15.70
2018-12-27T07:13:17.104Z,16.40
2018-12-27T07:15:45.845Z,16.27
2018-12-27T07:18:13.940Z,16.43
2018-12-27T07:20:42.242Z,16.83
2018-12-27T07:23:10.305Z,17.10
2018-12-27T07:25:38.166Z,15.27
2018-12-27T07:28:06.346Z,15.63
2018-12-27T07:30:34.419Z,15.77
2018-12-27T07:33:04.189Z,15.50
2018-12-27T07:35:30.470Z,15.67
2018-12-27T07:37:58.323Z,16.33
2018-12-27T07:40:26.261Z,16.73
2018-12-27T07:42:54.550Z,16.00
2018-12-27T07:45:22.229Z,16.93
2018-12-27T07:47:50.328Z,16.40
2018-12-27T07:50:18.587Z,21.00
2018-12-27T07:52:46.548Z,17.30
2018-12-27T07:55:14.618Z,16.97
2018-12-27T07:57:42.885Z,16.23
2018-12-27T08:00:10.957Z,16.03
2018-12-27T08:02:39.132Z,17.13
2018-12-27T08:05:06.848Z,15.60
2018-12-27T08:07:34.960Z,15.90
2018-12-27T08:10:02.418Z,16.05
2018-12-27T08:12:30.726Z,15.87
2018-12-27T08:14:58.440Z,15.33
2018-12-27T08:17:26.489Z,15.40
2018-12-27T08:19:54.461Z,16.07
2018-12-27T08:22:22.573Z,15.77
2018-12-27T08:24:50.666Z,17.23
2018-12-27T08:27:18.642Z,15.00
2018-12-27T08:29:46.669Z,15.80
2018-12-27T08:32:14.471Z,16.07
2018-12-27T08:34:42.507Z,16.10
2018-12-27T08:37:10.579Z,17.13
2018-12-27T08:39:38.681Z,16.50
2018-12-27T08:42:06.963Z,15.07
2018-12-27T08:44:35.248Z,15.67
2018-12-27T08:47:03.258Z,16.13
2018-12-27T08:49:31.382Z,16.60
2018-12-27T08:51:59.350Z,15.60
2018-12-27T08:54:28.175Z,15.23
2018-12-27T08:56:56.239Z,16.43
2018-12-27T08:59:23.690Z,15.57
2018-12-27T09:01:51.694Z,16.17
2018-12-27T09:04:20.319Z,15.02
2018-12-27T09:07:31.645Z,16.20
2018-12-27T09:09:59.146Z,16.00
2018-12-27T09:12:27.386Z,15.60
2018-12-27T09:14:55.175Z,16.17
2018-12-27T09:17:23.318Z,16.17
2018-12-27T09:19:51.002Z,15.35
2018-12-27T09:22:18.947Z,15.30
2018-12-27T09:24:47.069Z,15.13
2018-12-27T09:27:15.114Z,15.60
2018-12-27T09:29:43.159Z,16.52
2018-12-27T09:32:11.460Z,14.25
2018-12-27T09:34:39.413Z,15.93
2018-12-27T09:37:07.522Z,15.23
2018-12-27T09:39:35.411Z,15.93
2018-12-27T09:42:03.400Z,14.68
2018-12-27T09:44:31.506Z,15.07
2018-12-27T09:46:59.980Z,14.93
2018-12-27T09:49:28.079Z,16.20
2018-12-27T09:52:02.047Z,15.25
2018-12-27T09:54:24.408Z,15.98
2018-12-27T09:56:52.491Z,15.98
2018-12-27T09:59:20.494Z,15.40
2018-12-27T10:01:49.324Z,15.75
2018-12-27T10:04:17.262Z,15.27
2018-12-27T10:06:45.097Z,17.00
2018-12-27T10:09:13.108Z,15.57
2018-12-27T10:11:41.230Z,19.83
2018-12-27T10:14:08.980Z,17.60
2018-12-27T10:16:37.398Z,16.42
2018-12-27T10:19:05.322Z,17.20
2018-12-27T10:21:33.390Z,16.45
2018-12-27T10:24:01.214Z,16.45
2018-12-27T10:26:29.354Z,17.25
2018-12-27T10:28:57.922Z,19.65
2018-12-27T10:31:26.010Z,17.12
2018-12-27T10:33:54.084Z,17.75
2018-12-27T10:36:21.720Z,16.37
2018-12-27T10:38:50.023Z,17.17
2018-12-27T10:41:18.128Z,15.30
2018-12-27T10:43:46.280Z,15.90
2018-12-27T10:46:14.468Z,15.82
2018-12-27T10:48:42.479Z,16.58
2018-12-27T10:51:10.422Z,15.80
2018-12-27T10:53:38.777Z,16.08
2018-12-27T10:56:06.789Z,16.15
2018-12-27T10:58:34.883Z,16.50
2018-12-27T11:01:02.926Z,16.02
2018-12-27T11:03:30.930Z,15.95
2018-12-27T11:05:58.522Z,15.60
2018-12-27T11:08:26.531Z,15.95
2018-12-27T11:10:54.512Z,15.70
2018-12-27T11:13:21.960Z,15.70
2018-12-27T11:15:49.948Z,14.80
2018-12-27T11:18:17.684Z,15.23
2018-12-27T11:20:45.787Z,13.90
2018-12-27T11:23:14.280Z,15.07
2018-12-27T11:25:42.374Z,14.27
2018-12-27T11:28:10.893Z,14.82
2018-12-27T11:30:38.944Z,14.35
2018-12-27T11:33:07.059Z,15.05
2018-12-27T11:35:35.731Z,14.63
2018-12-27T11:38:04.328Z,13.57
2018-12-27T11:40:32.288Z,14.57
2018-12-27T11:42:59.745Z,17.48
2018-12-27T11:45:27.875Z,14.23
2018-12-27T11:47:56.109Z,15.35
2018-12-27T11:50:23.932Z,14.60
2018-12-27T11:52:52.242Z,14.45
2018-12-27T11:55:20.810Z,14.52
2018-12-27T11:57:48.813Z,13.80
2018-12-27T12:00:16.861Z,14.87
2018-12-27T12:02:44.962Z,13.88
2018-12-27T12:05:12.845Z,14.50
2018-12-27T12:07:41.107Z,13.88
2018-12-27T12:10:08.299Z,13.25
2018-12-27T12:12:36.106Z,13.18
2018-12-27T12:15:04.756Z,14.00
2018-12-27T12:17:32.865Z,12.85
2018-12-27T12:20:00.655Z,13.60
2018-12-27T12:22:28.597Z,12.80
2018-12-27T12:24:56.607Z,13.38
2018-12-27T12:27:24.833Z,14.07
2018-12-27T12:29:53.222Z,13.13
2018-12-27T12:32:21.819Z,13.20
2018-12-27T12:34:49.976Z,13.32
2018-12-27T12:37:18.463Z,14.77
2018-12-27T12:39:46.664Z,13.02
2018-12-27T12:42:15.732Z,13.10
2018-12-27T12:44:42.739Z,12.95
2018-12-27T12:47:10.593Z,14.18
2018-12-27T12:49:39.095Z,13.50
2018-12-27T12:52:07.519Z,13.68
2018-12-27T12:54:35.586Z,12.73
2018-12-27T12:57:03.948Z,12.60
2018-12-27T12:59:32.068Z,14.02
2018-12-27T13:02:00.032Z,13.40
2018-12-27T13:04:27.763Z,12.60
2018-12-27T13:06:56.154Z,13.13
2018-12-27T13:09:23.783Z,12.18
2018-12-27T13:11:51.438Z,13.00
2018-12-27T13:14:20.117Z,13.68
2018-12-27T13:16:48.088Z,12.98
2018-12-27T13:19:16.091Z,13.65
2018-12-27T13:21:43.865Z,13.45
2018-12-27T13:24:11.621Z,13.15
2018-12-27T13:26:39.601Z,13.75
2018-12-27T13:29:07.698Z,14.27
2018-12-27T13:31:35.623Z,13.20
2018-12-27T13:34:03.605Z,13.73
2018-12-27T13:36:31.570Z,13.70
2018-12-27T13:38:59.277Z,13.10
2018-12-27T13:41:26.744Z,14.15
2018-12-27T13:43:54.664Z,14.02
2018-12-27T13:46:22.146Z,14.05
2018-12-27T13:48:50.107Z,13.73
2018-12-27T13:51:18.160Z,14.13
2018-12-27T13:53:46.345Z,12.93
2018-12-27T13:56:14.331Z,13.13
2018-12-27T13:58:42.356Z,14.30
2018-12-27T14:01:10.918Z,13.77
2018-12-27T14:03:38.651Z,13.60
2018-12-27T14:06:07.081Z,13.62
2018-12-27T14:08:35.065Z,13.65
2018-12-27T14:11:02.786Z,13.95
2018-12-27T14:13:31.216Z,13.85
2018-12-27T14:15:59.164Z,13.65
2018-12-27T14:18:27.245Z,14.43
2018-12-27T14:20:55.241Z,13.40
2018-12-27T14:23:22.933Z,13.38
2018-12-27T14:25:50.917Z,13.07
2018-12-27T14:28:18.656Z,14.45
2018-12-27T14:30:46.766Z,14.43
2018-12-27T14:33:14.558Z,13.40
2018-12-27T14:35:42.660Z,16.08
2018-12-27T14:38:10.793Z,14.45
2018-12-27T14:40:38.517Z,12.50
2018-12-27T14:43:06.629Z,13.55
2018-12-27T14:45:34.592Z,13.32
2018-12-27T14:48:02.703Z,12.88
2018-12-27T14:50:31.362Z,13.45
2018-12-27T14:52:59.531Z,14.18
2018-12-27T14:55:28.750Z,14.15
2018-12-27T14:57:56.476Z,13.65
2018-12-27T15:00:24.459Z,15.10
2018-12-27T15:02:52.636Z,14.57
2018-12-27T15:05:20.395Z,14.38
2018-12-27T15:07:48.280Z,13.62
2018-12-27T15:10:16.239Z,13.70
2018-12-27T15:12:43.742Z,13.10
2018-12-27T15:15:11.758Z,13.75
2018-12-27T15:17:40.242Z,14.40
2018-12-27T15:20:08.522Z,14.15
2018-12-27T15:22:36.588Z,13.88
2018-12-27T15:25:04.953Z,13.38
2018-12-27T15:27:32.995Z,13.73
2018-12-27T15:30:00.993Z,13.35
2018-12-27T15:32:29.094Z,13.65
2018-12-27T15:34:57.112Z,14.45
2018-12-27T15:37:25.702Z,12.85
2018-12-27T15:39:54.000Z,13.93
2018-12-27T15:42:22.024Z,14.38
2018-12-27T15:44:50.128Z,13.95
2018-12-27T15:47:18.653Z,13.68
2018-12-27T15:49:46.709Z,14.60
2018-12-27T15:52:14.794Z,15.32
2018-12-27T15:54:42.625Z,14.80
2018-12-27T15:57:10.857Z,15.07
2018-12-27T15:59:38.554Z,15.40
2018-12-27T16:02:06.552Z,15.85
2018-12-27T16:04:34.913Z,15.77
2018-12-27T16:07:02.926Z,16.43
2018-12-27T16:09:30.662Z,16.15
2018-12-27T16:11:59.354Z,15.68
2018-12-27T16:14:27.331Z,13.98
2018-12-27T16:16:55.481Z,15.25
2018-12-27T16:19:24.609Z,15.23
2018-12-27T16:21:52.568Z,14.02
2018-12-27T16:24:20.799Z,14.75
2018-12-27T16:26:48.809Z,15.13
2018-12-27T16:29:16.597Z,12.43
2018-12-27T16:31:44.599Z,13.20
2018-12-27T16:34:12.506Z,15.23
2018-12-27T16:36:40.678Z,13.38
2018-12-27T16:39:08.380Z,14.10
2018-12-27T16:41:36.698Z,14.13
2018-12-27T16:44:04.656Z,15.18
2018-12-27T16:46:32.619Z,14.65
2018-12-27T16:49:00.743Z,13.90
2018-12-27T16:51:28.734Z,14.17
2018-12-27T16:53:56.874Z,13.30
2018-12-27T16:56:25.093Z,13.90
2018-12-27T16:58:53.547Z,14.23
2018-12-27T17:01:21.715Z,13.90
2018-12-27T17:03:49.754Z,13.50
2018-12-27T17:06:17.862Z,12.23
2018-12-27T17:08:46.416Z,13.48
2018-12-27T17:11:14.879Z,14.13
2018-12-27T17:13:42.906Z,13.83
2018-12-27T17:16:10.940Z,13.20
2018-12-27T17:18:39.152Z,12.60
2018-12-27T17:21:07.362Z,16.13
2018-12-27T17:23:35.471Z,15.80
2018-12-27T17:26:03.512Z,19.40
2018-12-27T17:28:31.491Z,16.87
2018-12-27T17:30:59.189Z,17.53
2018-12-27T17:33:27.090Z,15.90
2018-12-27T17:35:54.837Z,16.33
2018-12-27T17:38:22.837Z,15.80
2018-12-27T17:40:50.905Z,16.33
2018-12-27T17:43:18.909Z,13.53
2018-12-27T17:45:47.499Z,13.33
2018-12-27T17:48:15.856Z,13.60
2018-12-27T17:50:43.962Z,15.33
2018-12-27T17:53:12.011Z,18.92
2018-12-27T17:55:40.197Z,17.30
2018-12-27T17:58:08.240Z,15.50
2018-12-27T18:00:37.143Z,15.47
2018-12-27T18:03:04.917Z,15.60
2018-12-27T18:05:32.953Z,16.23
2018-12-27T18:08:01.633Z,18.95
2018-12-27T18:10:30.029Z,15.98
2018-12-27T18:12:57.785Z,15.68
2018-12-27T18:15:25.490Z,14.43
2018-12-27T18:17:53.757Z,16.33
2018-12-27T18:20:22.133Z,15.93
2018-12-27T18:22:49.996Z,15.98
2018-12-27T18:25:18.367Z,20.25
2018-12-27T18:27:46.952Z,20.75
2018-12-27T18:30:15.012Z,22.00
2018-12-27T18:32:43.240Z,19.73
2018-12-27T18:35:11.214Z,17.77
2018-12-27T18:37:39.357Z,16.90
2018-12-27T18:40:07.109Z,15.73
2018-12-27T18:42:35.320Z,16.65
2018-12-27T18:45:03.049Z,17.52
2018-12-27T18:47:31.087Z,16.55
2018-12-27T18:49:59.335Z,15.57
2018-12-27T18:52:27.424Z,15.50
2018-12-27T18:54:55.434Z,15.90
2018-12-27T18:57:23.155Z,16.47
2018-12-27T18:59:51.362Z,17.10
2018-12-27T19:02:19.777Z,17.53
2018-12-27T19:04:47.830Z,16.60
2018-12-27T19:07:15.915Z,16.95
2018-12-27T19:09:43.951Z,16.92
2018-12-27T19:12:29.964Z,15.77
2018-12-27T19:15:01.196Z,13.80
2018-12-27T19:17:32.532Z,13.65
2018-12-27T19:20:00.543Z,14.20
2018-12-27T19:22:32.267Z,14.43
2018-12-27T19:25:00.362Z,13.73
2018-12-27T19:27:28.440Z,18.15
2018-12-27T19:29:56.600Z,16.98
2018-12-27T19:32:24.463Z,19.12
2018-12-27T19:34:52.652Z,17.17
2018-12-27T19:37:20.593Z,14.35
2018-12-27T19:39:48.315Z,15.35
2018-12-27T19:42:16.269Z,16.00
2018-12-27T19:44:44.760Z,14.55
2018-12-27T19:47:12.688Z,15.02
2018-12-27T19:49:40.434Z,14.52
2018-12-27T19:52:08.243Z,15.35
2018-12-27T19:54:36.047Z,14.87
2018-12-27T19:57:04.077Z,13.48
2018-12-27T19:59:31.895Z,14.20
2018-12-27T20:01:59.871Z,14.17
2018-12-27T20:04:28.318Z,14.43
2018-12-27T20:06:56.417Z,14.47
2018-12-27T20:09:24.387Z,16.07
2018-12-27T20:11:52.640Z,14.80
2018-12-27T20:14:21.771Z,14.90
2018-12-27T20:16:49.774Z,14.53
2018-12-27T20:19:17.500Z,14.00
2018-12-27T20:21:45.494Z,14.27
2018-12-27T20:24:13.330Z,14.97
2018-12-27T20:26:41.332Z,13.88
2018-12-27T20:29:09.271Z,13.48
2018-12-27T20:31:37.227Z,14.23
2018-12-27T20:34:05.249Z,15.83
2018-12-27T20:36:33.284Z,14.18
2018-12-27T20:39:01.405Z,13.27
2018-12-27T20:41:29.155Z,14.10
2018-12-27T20:43:58.223Z,13.77
2018-12-27T20:46:25.972Z,13.80
2018-12-27T20:48:54.896Z,13.43
2018-12-27T20:51:23.682Z,12.37
2018-12-27T20:53:51.634Z,11.95
2018-12-27T20:56:19.711Z,12.63
2018-12-27T20:58:47.469Z,18.10
2018-12-27T21:01:15.196Z,14.63
2018-12-27T21:03:43.579Z,13.27
2018-12-27T21:06:11.935Z,13.77
2018-12-27T21:08:39.363Z,13.53
2018-12-27T21:11:06.827Z,13.23
2018-12-27T21:13:35.156Z,12.98
2018-12-27T21:16:03.175Z,12.77
2018-12-27T21:18:30.919Z,16.10
2018-12-27T21:20:59.276Z,15.70
2018-12-27T21:23:27.247Z,15.60
2018-12-27T21:25:55.374Z,15.38
2018-12-27T21:28:23.822Z,13.75
2018-12-27T21:30:52.078Z,14.70
2018-12-27T21:33:20.168Z,15.67
2018-12-27T21:35:48.714Z,15.75
2018-12-27T21:38:21.266Z,19.50
2018-12-27T21:40:44.701Z,15.83
2018-12-27T21:43:12.714Z,15.20
2018-12-27T21:45:40.689Z,16.37
2018-12-27T21:48:08.700Z,16.23
2018-12-27T21:50:37.169Z,15.55
2018-12-27T21:53:06.329Z,16.08
2018-12-27T21:55:34.234Z,15.23
2018-12-27T21:58:02.030Z,13.43
2018-12-27T22:00:30.173Z,13.97
2018-12-27T22:02:57.970Z,14.55
2018-12-27T22:05:26.019Z,15.43
2018-12-27T22:07:53.888Z,17.03
2018-12-27T22:10:21.872Z,16.25
2018-12-27T22:12:50.189Z,16.58
2018-12-27T22:15:17.663Z,16.23
2018-12-27T22:17:45.396Z,15.70
2018-12-27T22:20:13.834Z,15.00
2018-12-27T22:22:42.406Z,18.43
2018-12-27T22:25:10.958Z,17.43
2018-12-27T22:27:38.946Z,18.83
2018-12-27T22:30:07.337Z,19.73
2018-12-27T22:32:35.098Z,19.70
2018-12-27T22:35:03.119Z,17.10
2018-12-27T22:37:31.297Z,16.77
2018-12-27T22:39:58.710Z,18.67
2018-12-27T22:42:26.677Z,18.83
2018-12-27T22:44:54.680Z,17.90
2018-12-27T22:47:22.716Z,19.40
2018-12-27T22:49:50.833Z,19.63
2018-12-27T22:52:18.548Z,20.87
2018-12-27T22:54:46.252Z,19.63
2018-12-27T22:57:14.780Z,19.20
2018-12-27T22:59:42.850Z,18.23
2018-12-27T23:02:10.721Z,16.50
2018-12-27T23:04:38.712Z,18.90
2018-12-27T23:07:07.267Z,19.70
2018-12-27T23:09:35.410Z,19.63
2018-12-27T23:12:03.436Z,19.03
2018-12-27T23:14:31.173Z,18.80
2018-12-27T23:16:59.147Z,17.93
2018-12-27T23:19:27.199Z,16.70
2018-12-27T23:21:55.221Z,17.53
2018-12-27T23:24:22.959Z,19.17
2018-12-27T23:26:50.975Z,17.93
2018-12-27T23:29:19.033Z,16.63
2018-12-27T23:31:47.041Z,18.07
2018-12-27T23:34:15.122Z,16.80
2018-12-27T23:36:43.200Z,16.27
2018-12-27T23:39:11.276Z,17.87
2018-12-27T23:41:40.079Z,16.50
2018-12-27T23:44:07.816Z,17.27
2018-12-27T23:46:35.572Z,17.23
2018-12-27T23:49:03.988Z,17.03
2018-12-27T23:51:32.503Z,18.93
2018-12-27T23:54:01.115Z,17.97
2018-12-27T23:56:29.292Z,21.77
2018-12-27T23:58:57.355Z,16.00
